Time;durP1;ratioP1;P1;durP2;ratioP2;P2;SDS_P1;SDS_P2;PMS_P1;PMS_P2;Temp;Humidity;BMP_temperature;BMP_pressure;BME280_temperature;BME280_humidity;BME280_pressure;Samples;Min_cycle;Max_cycle;Signal;HPM_P1;HPM_P2
2021/07/16 00:00:53;;;;;;;2.60;2.40;;;17.70;99.90;;;;;;5056769;28;20643;-71
2021/07/16 00:03:19;;;;;;;5.27;2.57;;;17.70;99.90;;;;;;5038851;28;20638;-71
2021/07/16 00:05:45;;;;;;;3.40;2.53;;;17.60;99.90;;;;;;5057095;28;20622;-71
2021/07/16 00:08:12;;;;;;;3.53;2.40;;;17.50;99.90;;;;;;5056943;28;20615;-71
2021/07/16 00:10:38;;;;;;;4.33;3.27;;;17.50;99.90;;;;;;5038929;28;21169;-71
2021/07/16 00:13:06;;;;;;;3.20;2.60;;;17.50;99.90;;;;;;5056590;28;20659;-68
2021/07/16 00:15:32;;;;;;;2.63;2.40;;;17.40;99.90;;;;;;5056683;28;20619;-70
2021/07/16 00:17:58;;;;;;;3.00;2.90;;;17.40;99.90;;;;;;5056688;28;20606;-69
2021/07/16 00:20:25;;;;;;;2.80;2.60;;;17.40;99.90;;;;;;5056612;28;20948;-69
2021/07/16 00:22:51;;;;;;;3.53;3.07;;;17.40;99.90;;;;;;5056582;28;20992;-69
2021/07/16 00:25:17;;;;;;;3.77;3.47;;;17.40;99.90;;;;;;5055765;28;20631;-70
2021/07/16 00:27:44;;;;;;;3.50;3.20;;;17.40;99.90;;;;;;5056569;28;20602;-69
2021/07/16 00:30:11;;;;;;;3.20;3.00;;;17.40;99.90;;;;;;5055842;28;20619;-69
2021/07/16 00:32:38;;;;;;;4.07;3.67;;;17.30;99.90;;;;;;5056357;28;20630;-69
2021/07/16 00:35:05;;;;;;;11.43;3.83;;;17.20;99.90;;;;;;5056392;28;20578;-69
2021/07/16 00:37:32;;;;;;;6.17;4.00;;;17.20;99.90;;;;;;5056283;28;20944;-70
2021/07/16 00:39:58;;;;;;;3.83;3.63;;;17.20;99.90;;;;;;5055994;28;20646;-70
2021/07/16 00:42:25;;;;;;;4.03;3.40;;;17.10;99.90;;;;;;5038426;28;20693;-69
2021/07/16 00:44:51;;;;;;;4.40;4.00;;;17.00;99.90;;;;;;5056000;28;20623;-70
2021/07/16 00:47:17;;;;;;;4.67;4.10;;;17.00;99.90;;;;;;5056087;28;20613;-70
2021/07/16 00:49:44;;;;;;;5.30;4.00;;;17.00;99.90;;;;;;5056095;28;20598;-69
2021/07/16 00:52:10;;;;;;;4.50;4.10;;;17.00;99.90;;;;;;5038334;28;20643;-69
2021/07/16 00:54:38;;;;;;;4.67;3.80;;;17.00;99.90;;;;;;5055810;28;20605;-70
2021/07/16 00:57:07;;;;;;;5.70;3.70;;;16.90;99.90;;;;;;5055821;28;20602;-70
2021/07/16 00:59:34;;;;;;;4.40;3.47;;;17.00;99.90;;;;;;5055807;28;20630;-70
2021/07/16 01:02:01;;;;;;;4.47;4.07;;;17.00;99.90;;;;;;5056562;28;20594;-71
2021/07/16 01:04:28;;;;;;;4.00;3.70;;;16.90;99.90;;;;;;5055295;28;20645;-71
2021/07/16 01:06:54;;;;;;;4.40;3.60;;;16.90;99.90;;;;;;5037902;28;20609;-71
2021/07/16 01:09:21;;;;;;;6.40;4.30;;;16.90;99.90;;;;;;5055110;28;20631;-71
2021/07/16 01:11:48;;;;;;;4.73;3.70;;;16.80;99.90;;;;;;5055651;28;20615;-71
2021/07/16 01:14:14;;;;;;;4.90;3.70;;;16.70;99.90;;;;;;5055737;28;20642;-71
2021/07/16 01:16:41;;;;;;;4.80;4.00;;;16.70;99.90;;;;;;5055585;28;20615;-71
2021/07/16 01:19:10;;;;;;;4.20;3.80;;;16.70;99.90;;;;;;5055439;28;20621;-71
2021/07/16 01:21:38;;;;;;;3.93;3.63;;;16.80;99.90;;;;;;5055939;28;20615;-71
2021/07/16 01:24:07;;;;;;;5.33;3.47;;;16.80;99.90;;;;;;5055511;28;20619;-71
2021/07/16 01:26:36;;;;;;;5.83;3.40;;;16.60;99.90;;;;;;5054966;28;20627;-71
2021/07/16 01:29:03;;;;;;;4.13;3.77;;;16.60;99.90;;;;;;5055056;28;20679;-71
2021/07/16 01:31:31;;;;;;;3.20;3.00;;;16.50;99.90;;;;;;5055545;28;20697;-71
2021/07/16 01:33:57;;;;;;;4.03;3.30;;;16.40;99.90;;;;;;5055314;28;20638;-71
2021/07/16 01:36:24;;;;;;;3.80;3.60;;;16.40;99.90;;;;;;5055655;28;20599;-71
2021/07/16 01:38:50;;;;;;;3.90;3.67;;;16.40;99.90;;;;;;5055297;28;20596;-71
2021/07/16 01:41:16;;;;;;;4.03;3.73;;;16.50;99.90;;;;;;5035470;28;20623;-71
2021/07/16 01:43:43;;;;;;;4.10;3.80;;;16.50;99.90;;;;;;5035303;28;20620;-71
2021/07/16 01:46:09;;;;;;;4.20;3.90;;;16.50;99.90;;;;;;5035300;28;20648;-71
2021/07/16 01:48:35;;;;;;;8.03;3.40;;;16.60;99.90;;;;;;5035093;28;20592;-71
2021/07/16 01:51:02;;;;;;;5.10;3.20;;;16.60;99.90;;;;;;5034986;28;20707;-71
2021/07/16 01:53:28;;;;;;;4.03;3.83;;;16.60;99.90;;;;;;5034696;28;21002;-71
2021/07/16 01:55:54;;;;;;;3.97;3.60;;;16.60;99.90;;;;;;5034946;28;20599;-71
2021/07/16 01:58:21;;;;;;;4.13;3.73;;;16.60;99.90;;;;;;5034886;28;20928;-71
2021/07/16 02:00:48;;;;;;;3.70;3.37;;;16.60;99.90;;;;;;5034885;28;20595;-71
2021/07/16 02:03:17;;;;;;;4.07;3.67;;;16.60;99.90;;;;;;5033758;28;20674;-71
2021/07/16 02:05:44;;;;;;;4.70;3.70;;;16.60;99.90;;;;;;5034823;28;20607;-71
2021/07/16 02:08:19;;;;;;;3.93;3.73;;;16.60;99.90;;;;;;5035062;28;21152;-71
2021/07/16 02:10:53;;;;;;;4.10;3.83;;;16.50;99.90;;;;;;5034822;28;20556;-71
2021/07/16 02:13:20;;;;;;;4.00;3.70;;;16.40;99.90;;;;;;5034662;28;20592;-71
2021/07/16 02:15:49;;;;;;;5.00;4.63;;;16.50;99.90;;;;;;5034154;28;20604;-71
2021/07/16 02:18:16;;;;;;;4.67;4.27;;;16.50;99.90;;;;;;5034333;28;20598;-71
2021/07/16 02:20:44;;;;;;;9.47;3.93;;;16.50;99.90;;;;;;5034551;28;20624;-71
2021/07/16 02:23:19;;;;;;;6.20;4.40;;;16.40;99.90;;;;;;5033369;28;20598;-71
2021/07/16 02:25:45;;;;;;;5.40;4.10;;;16.40;99.90;;;;;;5033065;28;20646;-71
2021/07/16 02:28:25;;;;;;;5.23;4.20;;;16.40;99.90;;;;;;5034579;28;20570;-71
2021/07/16 02:30:52;;;;;;;4.50;4.10;;;16.40;99.90;;;;;;5034393;28;20564;-71
2021/07/16 02:33:19;;;;;;;7.63;4.23;;;16.30;99.90;;;;;;5034035;28;20638;-71
2021/07/16 02:35:47;;;;;;;7.30;4.57;;;16.20;99.90;;;;;;5034276;28;20602;-71
2021/07/16 02:38:14;;;;;;;5.20;4.07;;;16.20;99.90;;;;;;5034162;28;20599;-71
2021/07/16 02:40:41;;;;;;;7.87;4.10;;;16.20;99.90;;;;;;5032720;28;20747;-71
2021/07/16 02:43:08;;;;;;;5.90;4.23;;;16.20;99.90;;;;;;5034072;28;21028;-71
2021/07/16 02:45:36;;;;;;;4.93;4.53;;;16.20;99.90;;;;;;5034041;28;20634;-71
2021/07/16 02:48:03;;;;;;;4.77;4.30;;;16.20;99.90;;;;;;5033966;28;20615;-71
2021/07/16 02:50:36;;;;;;;4.80;4.00;;;16.20;99.90;;;;;;5034279;28;20625;-71
2021/07/16 02:53:04;;;;;;;5.43;4.60;;;16.10;99.90;;;;;;5034153;28;20619;-71
2021/07/16 02:55:31;;;;;;;4.80;4.13;;;16.00;99.90;;;;;;5034323;28;20608;-71
2021/07/16 02:57:57;;;;;;;10.10;4.30;;;16.00;99.90;;;;;;5034007;28;20606;-71
2021/07/16 03:00:27;;;;;;;6.13;4.80;;;16.00;99.90;;;;;;5033852;28;20604;-71
2021/07/16 03:02:53;;;;;;;4.93;4.23;;;15.90;99.90;;;;;;5033394;28;20627;-71
2021/07/16 03:05:25;;;;;;;7.60;4.53;;;15.90;99.90;;;;;;5033030;28;20622;-71
2021/07/16 03:07:52;;;;;;;4.83;4.43;;;15.90;99.90;;;;;;5033405;28;21062;-71
2021/07/16 03:10:30;;;;;;;5.70;4.43;;;15.90;99.90;;;;;;5033209;28;20623;-71
2021/07/16 03:13:03;;;;;;;4.97;4.67;;;16.00;99.90;;;;;;5033534;28;20662;-71
2021/07/16 03:15:30;;;;;;;5.13;4.73;;;16.00;99.90;;;;;;5032954;28;20579;-71
2021/07/16 03:17:57;;;;;;;6.80;3.87;;;16.00;99.90;;;;;;5033645;28;21130;-71
2021/07/16 03:20:27;;;;;;;5.30;4.80;;;16.10;99.90;;;;;;5033826;28;20694;-71
2021/07/16 03:22:54;;;;;;;6.10;5.20;;;16.10;99.90;;;;;;5033447;28;20603;-71
2021/07/16 03:25:21;;;;;;;4.60;4.07;;;16.10;99.90;;;;;;5033465;28;20972;-71
2021/07/16 03:27:48;;;;;;;17.03;4.90;;;16.10;99.90;;;;;;5033403;28;20592;-71
2021/07/16 03:30:19;;;;;;;5.17;4.40;;;16.00;99.90;;;;;;5033355;28;20965;-71
2021/07/16 03:32:45;;;;;;;11.00;4.47;;;16.00;99.90;;;;;;5033245;28;20596;-71
2021/07/16 03:35:13;;;;;;;8.60;3.83;;;16.00;99.90;;;;;;5033247;28;20623;-71
2021/07/16 03:37:40;;;;;;;4.57;4.17;;;16.00;99.90;;;;;;5033183;28;20604;-71
2021/07/16 03:40:09;;;;;;;6.17;4.90;;;16.00;99.90;;;;;;5043653;28;20647;-71
2021/07/16 03:42:35;;;;;;;4.20;4.00;;;15.90;99.90;;;;;;5053005;28;20586;-71
2021/07/16 03:45:04;;;;;;;4.87;4.33;;;15.90;99.90;;;;;;5053088;28;20591;-71
2021/07/16 03:47:31;;;;;;;4.40;4.00;;;15.80;99.90;;;;;;5052968;28;20633;-71
2021/07/16 03:49:57;;;;;;;4.63;4.33;;;15.80;99.90;;;;;;5053237;28;21133;-71
2021/07/16 03:52:25;;;;;;;4.90;4.50;;;15.70;99.90;;;;;;5053147;28;20607;-71
2021/07/16 03:54:51;;;;;;;9.03;4.43;;;15.70;99.90;;;;;;5053407;28;20611;-71
2021/07/16 03:57:17;;;;;;;8.93;4.03;;;15.70;99.90;;;;;;5052880;28;20598;-71
2021/07/16 03:59:44;;;;;;;8.70;4.70;;;15.80;99.90;;;;;;5053196;28;20618;-71
2021/07/16 04:02:10;;;;;;;9.87;6.50;;;15.80;99.90;;;;;;5052550;28;20599;-71
2021/07/16 04:04:37;;;;;;;6.23;4.00;;;15.80;99.90;;;;;;5052509;28;20658;-71
2021/07/16 04:07:05;;;;;;;5.70;5.30;;;15.80;99.90;;;;;;5053099;28;21156;-71
2021/07/16 04:09:33;;;;;;;11.70;5.00;;;15.90;99.90;;;;;;5053038;28;20619;-71
2021/07/16 04:12:10;;;;;;;5.20;4.23;;;16.00;99.90;;;;;;5035471;28;20637;-71
2021/07/16 04:14:41;;;;;;;4.50;4.10;;;16.10;99.90;;;;;;5052868;28;20630;-71
2021/07/16 04:17:16;;;;;;;7.63;3.97;;;16.10;99.90;;;;;;5052893;28;20560;-71
2021/07/16 04:19:43;;;;;;;5.30;4.03;;;16.20;99.90;;;;;;5052904;28;21111;-71
2021/07/16 04:22:10;;;;;;;4.07;3.77;;;16.20;99.90;;;;;;5052890;28;20611;-71
2021/07/16 04:24:38;;;;;;;5.00;4.53;;;16.20;99.90;;;;;;5051582;28;21176;-71
2021/07/16 04:27:05;;;;;;;6.90;3.70;;;16.30;99.90;;;;;;5052701;28;20611;-71
2021/07/16 04:29:33;;;;;;;4.47;4.10;;;16.40;99.90;;;;;;5052625;28;20621;-71
2021/07/16 04:32:00;;;;;;;11.80;4.60;;;16.60;99.90;;;;;;5052837;28;20631;-71
2021/07/16 04:34:34;;;;;;;3.93;3.63;;;16.60;99.90;;;;;;5052599;28;20641;-71
2021/07/16 04:37:03;;;;;;;5.20;4.70;;;16.60;99.90;;;;;;5052745;28;20556;-71
2021/07/16 04:39:29;;;;;;;4.50;4.20;;;16.70;99.90;;;;;;5053084;28;20653;-71
2021/07/16 04:41:56;;;;;;;4.10;3.57;;;16.70;99.90;;;;;;5056166;28;21101;-71
2021/07/16 04:44:22;;;;;;;5.73;3.97;;;16.80;99.90;;;;;;5037889;28;20627;-71
2021/07/16 04:46:50;;;;;;;4.60;3.83;;;16.80;99.90;;;;;;5056144;28;20602;-71
2021/07/16 04:49:17;;;;;;;7.20;3.83;;;16.80;99.90;;;;;;5055391;28;21016;-71
2021/07/16 04:51:44;;;;;;;4.97;3.80;;;16.80;99.90;;;;;;5055609;28;21003;-71
2021/07/16 04:54:14;;;;;;;4.67;4.20;;;16.70;99.90;;;;;;5055759;28;20656;-71
2021/07/16 04:56:41;;;;;;;5.20;3.87;;;16.80;99.90;;;;;;5055570;28;21159;-71
2021/07/16 04:59:07;;;;;;;6.27;4.20;;;16.90;99.90;;;;;;5038033;28;20641;-71
2021/07/16 05:01:34;;;;;;;4.03;3.60;;;17.00;99.90;;;;;;5040561;28;20623;-71
2021/07/16 05:04:00;;;;;;;4.27;3.90;;;17.10;99.90;;;;;;5055476;28;21126;-71
2021/07/16 05:06:26;;;;;;;4.60;4.30;;;17.10;99.90;;;;;;5037920;28;21160;-71
2021/07/16 05:08:54;;;;;;;4.43;4.13;;;17.20;99.90;;;;;;5055263;28;20626;-71
2021/07/16 05:11:21;;;;;;;6.23;4.70;;;17.20;99.90;;;;;;5055117;28;20672;-71
2021/07/16 05:13:48;;;;;;;4.33;4.03;;;17.30;99.90;;;;;;5036798;28;20665;-71
2021/07/16 05:16:16;;;;;;;4.00;3.80;;;17.50;99.90;;;;;;5054810;28;20615;-71
2021/07/16 05:18:43;;;;;;;4.73;4.33;;;17.60;99.90;;;;;;5055351;28;20645;-71
2021/07/16 05:21:11;;;;;;;6.27;5.77;;;17.70;99.90;;;;;;5055156;28;20627;-71
2021/07/16 05:23:38;;;;;;;4.40;4.10;;;17.80;99.90;;;;;;5054462;28;20622;-71
2021/07/16 05:26:04;;;;;;;4.10;3.80;;;17.90;99.90;;;;;;5055479;28;20594;-71
2021/07/16 05:28:30;;;;;;;3.90;3.60;;;18.00;99.90;;;;;;5055513;28;20929;-71
2021/07/16 05:30:57;;;;;;;8.33;3.97;;;18.10;99.90;;;;;;5055468;28;20599;-71
2021/07/16 05:33:24;;;;;;;5.47;4.30;;;18.30;99.90;;;;;;5055907;28;20642;-71
2021/07/16 05:35:50;;;;;;;4.10;3.53;;;18.20;99.90;;;;;;5055399;28;20610;-71
2021/07/16 05:38:17;;;;;;;4.10;3.70;;;18.30;99.90;;;;;;5055164;28;20615;-70
2021/07/16 05:40:43;;;;;;;4.57;3.67;;;18.30;99.90;;;;;;5054750;28;21180;-71
2021/07/16 05:43:11;;;;;;;3.67;3.00;;;18.30;99.90;;;;;;5054726;28;20619;-71
2021/07/16 05:45:40;;;;;;;6.63;4.60;;;18.30;99.90;;;;;;5055080;28;20595;-71
2021/07/16 05:48:12;;;;;;;3.93;3.63;;;18.40;99.90;;;;;;5055022;28;21122;-72
2021/07/16 05:50:40;;;;;;;4.10;3.80;;;18.50;99.90;;;;;;5054326;28;20655;-71
2021/07/16 05:53:07;;;;;;;4.20;3.80;;;18.60;99.90;;;;;;5054220;28;20899;-70
2021/07/16 05:55:34;;;;;;;16.90;4.10;;;18.80;99.90;;;;;;5054650;28;20598;-70
2021/07/16 05:58:00;;;;;;;6.50;3.30;;;18.80;99.90;;;;;;5054591;28;21206;-70
2021/07/16 06:00:28;;;;;;;4.40;4.10;;;18.70;99.90;;;;;;5054664;28;20592;-70
2021/07/16 06:02:55;;;;;;;8.40;3.43;;;18.70;99.90;;;;;;5054218;28;20615;-70
2021/07/16 06:05:22;;;;;;;9.77;3.50;;;18.70;99.90;;;;;;5054955;28;20607;-70
2021/07/16 06:07:49;;;;;;;4.10;3.47;;;18.70;99.90;;;;;;5054538;28;21026;-70
2021/07/16 06:10:15;;;;;;;3.90;3.60;;;18.70;99.90;;;;;;5055774;28;20609;-70
2021/07/16 06:12:42;;;;;;;4.27;3.87;;;18.80;99.90;;;;;;5054677;28;20598;-70
2021/07/16 06:15:09;;;;;;;4.80;3.40;;;18.80;99.90;;;;;;5036876;28;20742;-71
2021/07/16 06:17:36;;;;;;;5.47;3.77;;;18.90;99.90;;;;;;5054199;28;20602;-71
2021/07/16 06:20:05;;;;;;;4.83;4.50;;;19.00;99.90;;;;;;5036389;28;21152;-71
2021/07/16 06:22:32;;;;;;;7.50;4.87;;;19.20;99.90;;;;;;5054528;28;20598;-71
2021/07/16 06:24:59;;;;;;;10.23;5.00;;;19.50;99.90;;;;;;5054046;28;20599;-71
2021/07/16 06:27:25;;;;;;;6.47;4.83;;;19.60;99.90;;;;;;5054043;28;20690;-71
2021/07/16 06:29:52;;;;;;;4.67;4.43;;;19.70;99.90;;;;;;5053932;28;20625;-71
2021/07/16 06:32:18;;;;;;;19.20;5.93;;;19.80;99.90;;;;;;5053847;28;20595;-71
2021/07/16 06:34:45;;;;;;;5.97;5.37;;;20.00;99.90;;;;;;5053280;28;21089;-71
2021/07/16 06:37:11;;;;;;;14.60;7.10;;;20.40;99.90;;;;;;5053447;28;20619;-71
2021/07/16 06:39:38;;;;;;;11.43;9.00;;;20.90;99.90;;;;;;5035904;28;20737;-71
2021/07/16 06:42:06;;;;;;;10.03;8.73;;;21.20;99.90;;;;;;5053796;28;21167;-71
2021/07/16 06:44:32;;;;;;;8.70;7.83;;;21.10;99.90;;;;;;5053824;28;21152;-71
2021/07/16 06:46:59;;;;;;;9.63;8.60;;;20.80;99.90;;;;;;5054204;28;21162;-71
2021/07/16 06:49:28;;;;;;;9.60;8.40;;;20.80;99.90;;;;;;5054118;28;20653;-70
2021/07/16 06:51:58;;;;;;;13.70;9.37;;;20.80;99.90;;;;;;5053772;28;20599;-71
2021/07/16 06:54:25;;;;;;;12.60;10.80;;;20.70;99.90;;;;;;5053554;28;20655;-71
2021/07/16 06:56:53;;;;;;;10.03;9.07;;;20.50;99.90;;;;;;5053736;28;20603;-71
2021/07/16 06:59:20;;;;;;;11.10;10.10;;;20.60;99.90;;;;;;5053562;28;20595;-71
2021/07/16 07:01:47;;;;;;;11.50;10.10;;;20.70;99.90;;;;;;5053285;28;20635;-71
2021/07/16 07:04:13;;;;;;;11.63;10.43;;;21.10;99.90;;;;;;5053270;28;20614;-71
2021/07/16 07:06:39;;;;;;;11.13;10.00;;;21.40;99.90;;;;;;5053416;28;20591;-71
2021/07/16 07:09:06;;;;;;;8.93;8.13;;;21.90;99.90;;;;;;5035718;28;20960;-71
2021/07/16 07:11:33;;;;;;;8.13;7.53;;;22.20;99.90;;;;;;5052531;28;20623;-71
2021/07/16 07:13:59;;;;;;;8.33;7.63;;;22.00;99.90;;;;;;5053212;28;20986;-71
2021/07/16 07:16:25;;;;;;;7.97;7.20;;;21.80;99.90;;;;;;5053152;28;20601;-71
2021/07/16 07:18:52;;;;;;;8.07;7.37;;;21.70;99.90;;;;;;5035690;28;21156;-71
2021/07/16 07:21:18;;;;;;;5.70;5.30;;;21.60;99.90;;;;;;5053276;28;20595;-71
2021/07/16 07:23:44;;;;;;;12.90;7.47;;;21.50;99.90;;;;;;5053378;28;20966;-71
2021/07/16 07:26:11;;;;;;;7.60;7.00;;;21.70;99.90;;;;;;5052782;28;20603;-71
2021/07/16 07:28:37;;;;;;;7.83;5.67;;;22.00;99.90;;;;;;5034642;28;20619;-71
2021/07/16 07:31:04;;;;;;;7.50;6.10;;;22.00;99.90;;;;;;5052619;28;20608;-71
2021/07/16 07:33:31;;;;;;;6.23;5.73;;;22.10;99.90;;;;;;5052957;28;20598;-71
2021/07/16 07:35:57;;;;;;;7.20;6.60;;;22.00;99.90;;;;;;5053117;28;20632;-71
2021/07/16 07:38:26;;;;;;;7.33;6.70;;;22.10;99.90;;;;;;5053102;28;21180;-71
2021/07/16 07:40:53;;;;;;;7.23;6.60;;;22.20;99.90;;;;;;5052117;28;20658;-71
2021/07/16 07:43:19;;;;;;;7.87;7.10;;;22.20;99.90;;;;;;5052847;28;20627;-71
2021/07/16 07:45:46;;;;;;;7.33;6.60;;;22.10;99.90;;;;;;5053146;28;20592;-71
2021/07/16 07:48:12;;;;;;;8.07;6.70;;;22.20;99.90;;;;;;5053175;28;20956;-71
2021/07/16 07:50:40;;;;;;;7.47;6.77;;;22.30;99.90;;;;;;5053161;28;20602;-72
2021/07/16 07:53:06;;;;;;;8.60;7.73;;;22.40;99.90;;;;;;5052896;28;20601;-71
2021/07/16 07:55:35;;;;;;;8.30;7.70;;;22.10;99.90;;;;;;5053077;28;20651;-71
2021/07/16 07:58:01;;;;;;;7.10;6.50;;;22.40;99.90;;;;;;5052949;28;20601;-71
2021/07/16 08:00:28;;;;;;;7.40;6.77;;;23.00;99.90;;;;;;5052823;28;20971;-71
2021/07/16 08:02:54;;;;;;;6.50;5.90;;;23.10;99.90;;;;;;5052390;28;20677;-71
2021/07/16 08:05:21;;;;;;;7.57;6.97;;;23.10;99.90;;;;;;5052979;28;20662;-71
2021/07/16 08:07:48;;;;;;;7.07;6.40;;;23.00;99.90;;;;;;5052825;28;21158;-71
2021/07/16 08:10:17;;;;;;;7.87;7.17;;;23.20;99.90;;;;;;5052758;28;20657;-71
2021/07/16 08:12:45;;;;;;;6.90;6.30;;;23.10;99.90;;;;;;5053329;28;21157;-71
2021/07/16 08:15:13;;;;;;;6.73;6.23;;;23.50;99.90;;;;;;5036633;28;20665;-71
2021/07/16 08:17:40;;;;;;;6.43;5.93;;;23.90;99.90;;;;;;5056664;28;20602;-71
2021/07/16 08:20:11;;;;;;;6.03;5.57;;;23.80;99.90;;;;;;5056342;28;21170;-71
2021/07/16 08:22:39;;;;;;;7.10;5.40;;;23.60;99.90;;;;;;5056741;28;20947;-71
2021/07/16 08:25:07;;;;;;;8.97;6.23;;;23.90;99.90;;;;;;5056843;28;20615;-71
2021/07/16 08:27:33;;;;;;;7.27;6.40;;;23.90;99.90;;;;;;5056570;28;20629;-71
2021/07/16 08:30:00;;;;;;;7.17;6.57;;;23.80;99.90;;;;;;5056588;28;20943;-71
2021/07/16 08:32:26;;;;;;;7.67;7.07;;;23.50;99.90;;;;;;5056625;28;20633;-71
2021/07/16 08:34:52;;;;;;;7.20;6.60;;;23.30;99.90;;;;;;5038181;28;21099;-71
2021/07/16 08:37:19;;;;;;;7.60;6.90;;;23.10;99.90;;;;;;5056375;28;20619;-71
2021/07/16 08:39:45;;;;;;;11.53;7.77;;;23.20;99.90;;;;;;5056291;28;21002;-71
2021/07/16 08:42:14;;;;;;;6.40;5.80;;;23.30;99.90;;;;;;5056530;28;20615;-71
2021/07/16 08:44:44;;;;;;;6.53;5.27;;;23.50;99.90;;;;;;5055420;28;20630;-71
2021/07/16 08:47:11;;;;;;;5.90;5.40;;;23.60;99.90;;;;;;5055924;28;20623;-71
2021/07/16 08:49:39;;;;;;;5.70;4.53;;;23.60;99.90;;;;;;5055972;28;20595;-71
2021/07/16 08:52:07;;;;;;;6.70;5.23;;;23.90;99.90;;;;;;5055888;28;20930;-71
2021/07/16 08:54:38;;;;;;;6.47;5.90;;;24.00;99.90;;;;;;5037579;28;20731;-71
2021/07/16 08:57:05;;;;;;;6.47;5.83;;;24.40;99.90;;;;;;5055655;28;21001;-71
2021/07/16 08:59:31;;;;;;;5.77;5.20;;;24.50;99.90;;;;;;5055419;28;20635;-70
2021/07/16 09:02:00;;;;;;;5.43;5.07;;;24.00;99.90;;;;;;5055741;28;20920;-71
2021/07/16 09:04:27;;;;;;;9.00;4.47;;;24.10;99.90;;;;;;5055741;28;20602;-70
2021/07/16 09:06:57;;;;;;;5.60;5.10;;;23.90;99.90;;;;;;5055474;28;20611;-71
2021/07/16 09:09:26;;;;;;;4.70;4.03;;;24.00;99.90;;;;;;5055693;28;20676;-71
2021/07/16 09:11:58;;;;;;;4.67;4.37;;;24.50;99.90;;;;;;5055596;28;20606;-71
2021/07/16 09:14:27;;;;;;;5.30;4.20;;;25.10;99.90;;;;;;5055066;28;20657;-71
2021/07/16 09:16:57;;;;;;;6.83;4.07;;;25.00;99.90;;;;;;5055693;28;21212;-70
2021/07/16 09:19:44;;;;;;;4.00;3.70;;;25.30;99.90;;;;;;5055210;28;20986;-70
2021/07/16 09:22:20;;;;;;;4.50;4.17;;;24.90;99.90;;;;;;5055705;28;20621;-71
2021/07/16 09:24:54;;;;;;;4.70;4.37;;;25.00;99.90;;;;;;5055840;28;20940;-71
2021/07/16 09:27:39;;;;;;;4.70;4.17;;;25.00;99.90;;;;;;5055419;28;20539;-71
2021/07/16 09:30:23;;;;;;;6.53;4.50;;;25.00;99.90;;;;;;5054517;28;20622;-71
2021/07/16 09:32:56;;;;;;;5.00;4.60;;;25.30;99.90;;;;;;5055406;28;20981;-72
2021/07/16 09:35:37;;;;;;;5.00;4.70;;;25.10;99.90;;;;;;5056233;28;20626;-72
2021/07/16 09:38:12;;;;;;;5.30;5.00;;;25.10;99.90;;;;;;5054811;28;20619;-70
2021/07/16 09:40:41;;;;;;;5.60;5.30;;;24.70;99.90;;;;;;5054886;28;20995;-71
2021/07/16 09:43:10;;;;;;;10.23;5.90;;;24.20;99.90;;;;;;5055026;28;20595;-70
2021/07/16 09:45:44;;;;;;;6.47;4.70;;;23.90;99.90;;;;;;5055008;28;20607;-70
2021/07/16 09:48:19;;;;;;;6.37;5.87;;;24.20;99.90;;;;;;5054875;28;20559;-70
2021/07/16 09:50:46;;;;;;;7.30;5.77;;;24.60;99.90;;;;;;5054642;28;20614;-70
2021/07/16 09:53:22;;;;;;;8.40;5.00;;;24.50;99.90;;;;;;5054988;28;20619;-70
2021/07/16 09:55:49;;;;;;;5.30;4.90;;;24.10;99.90;;;;;;5036754;28;21059;-70
2021/07/16 09:58:26;;;;;;;5.47;4.93;;;24.10;99.90;;;;;;5054153;28;20623;-70
2021/07/16 10:00:54;;;;;;;13.23;5.47;;;23.90;99.90;;;;;;5054543;28;20618;-71
2021/07/16 10:03:21;;;;;;;5.67;5.20;;;24.40;99.90;;;;;;5043911;28;20616;-71
2021/07/16 10:05:49;;;;;;;4.70;4.30;;;25.10;99.90;;;;;;5051715;28;20985;-71
2021/07/16 10:08:17;;;;;;;5.33;5.03;;;25.50;99.90;;;;;;5054358;28;20611;-71
2021/07/16 10:10:46;;;;;;;6.90;6.20;;;25.60;99.90;;;;;;5053938;28;20748;-71
2021/07/16 10:13:13;;;;;;;5.60;5.20;;;25.70;99.90;;;;;;5053907;28;21170;-71
2021/07/16 10:15:43;;;;;;;6.03;5.30;;;25.50;99.90;;;;;;5054039;28;20670;-70
2021/07/16 10:18:10;;;;;;;6.53;5.83;;;25.70;99.90;;;;;;5053942;28;20611;-70
2021/07/16 10:20:37;;;;;;;5.43;4.80;;;25.60;99.90;;;;;;5036453;28;20622;-70
2021/07/16 10:23:04;;;;;;;7.10;6.00;;;25.60;99.90;;;;;;5054598;28;20617;-70
2021/07/16 10:25:31;;;;;;;6.30;5.80;;;25.60;99.90;;;;;;5053938;28;21211;-71
2021/07/16 10:27:58;;;;;;;5.53;5.23;;;25.40;99.90;;;;;;5053649;28;21140;-71
2021/07/16 10:30:31;;;;;;;4.67;4.27;;;25.70;99.90;;;;;;5045145;28;20623;-71
2021/07/16 10:33:00;;;;;;;4.63;4.33;;;25.90;99.90;;;;;;5050276;28;20949;-71
2021/07/16 10:35:29;;;;;;;4.57;3.87;;;26.40;99.90;;;;;;5057520;28;20662;-71
2021/07/16 10:38:00;;;;;;;7.70;4.80;;;26.20;99.90;;;;;;5053305;28;20615;-71
2021/07/16 10:40:40;;;;;;;3.80;3.60;;;26.70;99.90;;;;;;5035575;28;21129;-71
2021/07/16 10:43:08;;;;;;;4.40;4.17;;;26.70;99.90;;;;;;5033580;28;20628;-71
2021/07/16 10:45:39;;;;;;;5.57;5.23;;;26.90;99.90;;;;;;5053822;28;20614;-71
2021/07/16 10:48:11;;;;;;;4.53;4.17;;;27.10;99.90;;;;;;5053427;28;20967;-71
2021/07/16 10:50:39;;;;;;;4.50;4.10;;;26.90;99.90;;;;;;5054088;28;20631;-71
2021/07/16 10:53:08;;;;;;;6.93;6.33;;;27.10;99.90;;;;;;5053623;28;20616;-71
2021/07/16 10:55:40;;;;;;;8.30;5.90;;;26.90;99.90;;;;;;5035661;28;20651;-71
2021/07/16 10:58:21;;;;;;;4.30;4.00;;;26.80;99.90;;;;;;5053596;28;20579;-71
2021/07/16 11:00:51;;;;;;;3.97;3.77;;;26.40;99.90;;;;;;5054063;28;20579;-71
2021/07/16 11:03:19;;;;;;;4.10;3.17;;;26.60;99.90;;;;;;5052590;28;21147;-71
2021/07/16 11:05:45;;;;;;;3.47;3.27;;;26.60;99.90;;;;;;5061432;28;20646;-71
2021/07/16 11:08:38;;;;;;;3.43;3.10;;;26.50;99.90;;;;;;5053090;28;21176;-71
2021/07/16 11:11:19;;;;;;;3.00;2.90;;;26.50;99.90;;;;;;5073102;28;20626;-71
2021/07/16 11:13:54;;;;;;;2.47;2.27;;;26.40;99.90;;;;;;5073117;28;20624;-71
2021/07/16 11:16:31;;;;;;;3.00;2.90;;;26.50;99.90;;;;;;5073611;28;20668;-71
2021/07/16 11:18:59;;;;;;;3.27;3.17;;;26.70;99.90;;;;;;5073610;28;21152;-71
2021/07/16 11:21:52;;;;;;;6.93;3.17;;;27.00;99.90;;;;;;5065748;28;20687;-71
2021/07/16 11:24:18;;;;;;;4.03;3.23;;;27.50;99.90;;;;;;5046209;28;20649;-71
2021/07/16 11:27:09;;;;;;;3.50;3.30;;;27.20;99.90;;;;;;5053193;28;20647;-71
2021/07/16 11:29:39;;;;;;;3.10;2.90;;;27.20;99.90;;;;;;5053110;28;20635;-72
2021/07/16 11:32:14;;;;;;;3.43;3.10;;;26.60;99.90;;;;;;5053383;28;20669;-70
2021/07/16 11:34:57;;;;;;;4.13;3.70;;;26.70;99.90;;;;;;5052891;28;20665;-70
2021/07/16 11:37:36;;;;;;;4.00;3.70;;;27.10;99.90;;;;;;5053131;28;20942;-70
2021/07/16 11:40:15;;;;;;;4.30;4.00;;;27.40;99.90;;;;;;5052891;28;20659;-70
2021/07/16 11:42:53;;;;;;;3.50;3.30;;;27.70;99.90;;;;;;5052038;28;20690;-70
2021/07/16 11:45:22;;;;;;;4.57;4.10;;;27.50;99.90;;;;;;5052920;28;20642;-70
2021/07/16 11:47:49;;;;;;;6.73;4.57;;;27.20;99.90;;;;;;5053087;28;20619;-70
2021/07/16 11:50:16;;;;;;;4.00;3.63;;;27.00;99.90;;;;;;5055023;28;20614;-70
2021/07/16 11:52:50;;;;;;;6.70;3.73;;;26.90;99.90;;;;;;5057441;28;20622;-70
2021/07/16 11:55:21;;;;;;;4.70;4.20;;;26.90;99.90;;;;;;5056636;28;20653;-70
2021/07/16 11:57:59;;;;;;;9.77;3.30;;;26.30;99.90;;;;;;5056925;28;20623;-70
2021/07/16 12:00:28;;;;;;;6.43;3.67;;;26.40;99.90;;;;;;5056625;28;20621;-70
2021/07/16 12:03:06;;;;;;;3.60;3.30;;;26.60;99.90;;;;;;5056820;28;20638;-70
2021/07/16 12:05:43;;;;;;;4.33;4.13;;;26.50;99.90;;;;;;5056629;28;20626;-70
2021/07/16 12:08:10;;;;;;;3.63;3.33;;;26.70;99.90;;;;;;5037080;28;20561;-70
2021/07/16 12:10:36;;;;;;;3.30;3.00;;;26.50;99.90;;;;;;5037274;28;20615;-70
2021/07/16 12:13:03;;;;;;;7.33;3.40;;;26.80;99.90;;;;;;5036830;28;20599;-70
2021/07/16 12:15:30;;;;;;;3.43;3.10;;;27.40;99.90;;;;;;5018859;28;21248;-70
2021/07/16 12:17:58;;;;;;;3.93;3.40;;;27.60;99.90;;;;;;5049147;28;20619;-70
2021/07/16 12:20:30;;;;;;;4.90;4.50;;;27.60;99.90;;;;;;5056523;28;20618;-70
2021/07/16 12:22:58;;;;;;;5.40;3.80;;;27.50;99.90;;;;;;5056950;28;20626;-71
2021/07/16 12:25:25;;;;;;;4.40;3.73;;;28.20;99.90;;;;;;5056101;28;20626;-71
2021/07/16 12:28:10;;;;;;;3.53;3.33;;;29.30;99.90;;;;;;5038152;28;20630;-71
2021/07/16 12:30:38;;;;;;;5.30;3.90;;;30.00;99.90;;;;;;5056463;28;20627;-71
2021/07/16 12:33:07;;;;;;;3.97;3.50;;;30.30;99.90;;;;;;5056354;28;20638;-71
2021/07/16 12:35:42;;;;;;;5.57;4.40;;;30.30;99.90;;;;;;5021336;28;20666;-74
2021/07/16 12:38:15;;;;;;;8.33;3.83;;;29.40;99.90;;;;;;5038826;28;21126;-72
2021/07/16 12:40:44;;;;;;;3.07;2.87;;;29.30;99.90;;;;;;5018269;28;21194;-72
2021/07/16 12:43:16;;;;;;;3.00;2.80;;;28.60;99.90;;;;;;5047529;28;20637;-72
2021/07/16 12:45:44;;;;;;;4.07;3.17;;;27.80;99.90;;;;;;5037891;28;21064;-71
2021/07/16 12:48:20;;;;;;;3.37;3.10;;;27.90;99.90;;;;;;5056223;28;20611;-71
2021/07/16 12:50:48;;;;;;;3.40;3.20;;;29.20;99.90;;;;;;5037803;28;20661;-71
2021/07/16 12:53:34;;;;;;;5.50;2.93;;;30.20;99.90;;;;;;5035166;28;20712;-72